sensor_id;sensor_type;location;lat;lon;timestamp;P1;durP1;ratioP1;P2;durP2;ratioP2
27899;SDS011;15243;50.726;7.080;2022-12-07T00:01:12;66.38;;;33.13;;
27899;SDS011;15243;50.726;7.080;2022-12-07T00:03:50;64.50;;;32.28;;
27899;SDS011;15243;50.726;7.080;2022-12-07T00:06:19;63.30;;;31.55;;
27899;SDS011;15243;50.726;7.080;2022-12-07T00:08:47;67.15;;;32.65;;
27899;SDS011;15243;50.726;7.080;2022-12-07T00:11:15;58.15;;;30.77;;
27899;SDS011;15243;50.726;7.080;2022-12-07T00:13:44;60.38;;;31.30;;
27899;SDS011;15243;50.726;7.080;2022-12-07T00:16:15;61.55;;;29.70;;
27899;SDS011;15243;50.726;7.080;2022-12-07T00:18:44;55.90;;;27.95;;
27899;SDS011;15243;50.726;7.080;2022-12-07T00:21:15;60.90;;;30.15;;
27899;SDS011;15243;50.726;7.080;2022-12-07T00:23:44;64.97;;;31.15;;
27899;SDS011;15243;50.726;7.080;2022-12-07T00:26:21;60.60;;;31.13;;
27899;SDS011;15243;50.726;7.080;2022-12-07T00:28:50;63.05;;;31.60;;
27899;SDS011;15243;50.726;7.080;2022-12-07T00:31:20;64.18;;;30.13;;
27899;SDS011;15243;50.726;7.080;2022-12-07T00:33:48;60.88;;;29.67;;
27899;SDS011;15243;50.726;7.080;2022-12-07T00:36:17;62.80;;;30.55;;
27899;SDS011;15243;50.726;7.080;2022-12-07T00:38:52;60.33;;;30.40;;
27899;SDS011;15243;50.726;7.080;2022-12-07T00:41:21;56.22;;;29.83;;
27899;SDS011;15243;50.726;7.080;2022-12-07T00:43:50;58.95;;;29.88;;
27899;SDS011;15243;50.726;7.080;2022-12-07T00:46:18;63.00;;;31.60;;
27899;SDS011;15243;50.726;7.080;2022-12-07T00:48:46;59.15;;;30.73;;
27899;SDS011;15243;50.726;7.080;2022-12-07T00:51:14;63.28;;;32.70;;
27899;SDS011;15243;50.726;7.080;2022-12-07T00:53:42;63.17;;;32.28;;
27899;SDS011;15243;50.726;7.080;2022-12-07T00:56:16;59.78;;;31.02;;
27899;SDS011;15243;50.726;7.080;2022-12-07T00:58:55;60.25;;;32.22;;
27899;SDS011;15243;50.726;7.080;2022-12-07T01:01:24;61.05;;;31.35;;
27899;SDS011;15243;50.726;7.080;2022-12-07T01:03:53;58.33;;;30.52;;
27899;SDS011;15243;50.726;7.080;2022-12-07T01:06:20;57.95;;;31.13;;
27899;SDS011;15243;50.726;7.080;2022-12-07T01:08:49;59.90;;;32.33;;
27899;SDS011;15243;50.726;7.080;2022-12-07T01:11:17;54.08;;;29.88;;
27899;SDS011;15243;50.726;7.080;2022-12-07T01:13:46;58.55;;;30.85;;
27899;SDS011;15243;50.726;7.080;2022-12-07T01:16:15;57.53;;;30.77;;
27899;SDS011;15243;50.726;7.080;2022-12-07T01:18:45;54.70;;;31.85;;
27899;SDS011;15243;50.726;7.080;2022-12-07T01:21:14;59.72;;;32.40;;
27899;SDS011;15243;50.726;7.080;2022-12-07T01:23:43;62.78;;;33.25;;
27899;SDS011;15243;50.726;7.080;2022-12-07T01:26:11;57.10;;;32.28;;
27899;SDS011;15243;50.726;7.080;2022-12-07T01:28:40;63.35;;;32.80;;
27899;SDS011;15243;50.726;7.080;2022-12-07T01:31:08;61.75;;;32.20;;
27899;SDS011;15243;50.726;7.080;2022-12-07T01:33:46;57.85;;;32.88;;
27899;SDS011;15243;50.726;7.080;2022-12-07T01:36:24;63.60;;;34.10;;
27899;SDS011;15243;50.726;7.080;2022-12-07T01:38:57;65.00;;;33.70;;
27899;SDS011;15243;50.726;7.080;2022-12-07T01:41:27;57.13;;;31.80;;
27899;SDS011;15243;50.726;7.080;2022-12-07T01:46:37;65.88;;;33.58;;
27899;SDS011;15243;50.726;7.080;2022-12-07T01:49:05;55.88;;;30.25;;
27899;SDS011;15243;50.726;7.080;2022-12-07T01:51:34;58.22;;;31.60;;
27899;SDS011;15243;50.726;7.080;2022-12-07T01:54:03;59.67;;;32.88;;
27899;SDS011;15243;50.726;7.080;2022-12-07T01:56:30;58.75;;;31.90;;
27899;SDS011;15243;50.726;7.080;2022-12-07T01:58:58;61.83;;;32.95;;
27899;SDS011;15243;50.726;7.080;2022-12-07T02:01:26;60.17;;;33.15;;
27899;SDS011;15243;50.726;7.080;2022-12-07T02:03:54;56.05;;;30.65;;
27899;SDS011;15243;50.726;7.080;2022-12-07T02:06:22;58.20;;;31.20;;
27899;SDS011;15243;50.726;7.080;2022-12-07T02:08:50;63.47;;;33.13;;
27899;SDS011;15243;50.726;7.080;2022-12-07T02:11:18;56.15;;;32.20;;
27899;SDS011;15243;50.726;7.080;2022-12-07T02:13:46;63.67;;;34.28;;
27899;SDS011;15243;50.726;7.080;2022-12-07T02:19:02;60.92;;;33.95;;
27899;SDS011;15243;50.726;7.080;2022-12-07T02:21:53;68.00;;;35.25;;
27899;SDS011;15243;50.726;7.080;2022-12-07T02:30:09;60.00;;;33.10;;
27899;SDS011;15243;50.726;7.080;2022-12-07T02:32:59;61.22;;;35.08;;
27899;SDS011;15243;50.726;7.080;2022-12-07T02:35:38;65.40;;;34.78;;
27899;SDS011;15243;50.726;7.080;2022-12-07T02:40:50;64.07;;;34.22;;
27899;SDS011;15243;50.726;7.080;2022-12-07T02:43:47;62.97;;;34.38;;
27899;SDS011;15243;50.726;7.080;2022-12-07T02:46:26;61.17;;;32.97;;
27899;SDS011;15243;50.726;7.080;2022-12-07T02:48:56;70.30;;;34.63;;
27899;SDS011;15243;50.726;7.080;2022-12-07T02:51:25;63.45;;;34.90;;
27899;SDS011;15243;50.726;7.080;2022-12-07T02:53:56;71.97;;;36.30;;
27899;SDS011;15243;50.726;7.080;2022-12-07T03:04:37;67.63;;;34.33;;
27899;SDS011;15243;50.726;7.080;2022-12-07T03:07:24;65.60;;;36.05;;
27899;SDS011;15243;50.726;7.080;2022-12-07T03:10:42;61.10;;;34.25;;
27899;SDS011;15243;50.726;7.080;2022-12-07T03:16:11;61.47;;;32.60;;
27899;SDS011;15243;50.726;7.080;2022-12-07T03:18:44;62.72;;;34.67;;
27899;SDS011;15243;50.726;7.080;2022-12-07T03:21:16;61.92;;;33.15;;
27899;SDS011;15243;50.726;7.080;2022-12-07T03:23:47;62.03;;;33.35;;
27899;SDS011;15243;50.726;7.080;2022-12-07T03:26:17;59.97;;;33.45;;
27899;SDS011;15243;50.726;7.080;2022-12-07T03:28:49;61.30;;;33.72;;
27899;SDS011;15243;50.726;7.080;2022-12-07T03:31:24;68.60;;;34.42;;
27899;SDS011;15243;50.726;7.080;2022-12-07T03:34:18;66.85;;;34.83;;
27899;SDS011;15243;50.726;7.080;2022-12-07T03:37:01;61.90;;;33.08;;
27899;SDS011;15243;50.726;7.080;2022-12-07T03:39:39;60.67;;;34.13;;
27899;SDS011;15243;50.726;7.080;2022-12-07T03:42:12;64.43;;;34.33;;
27899;SDS011;15243;50.726;7.080;2022-12-07T03:44:39;63.92;;;34.53;;
27899;SDS011;15243;50.726;7.080;2022-12-07T03:47:15;63.58;;;34.70;;
27899;SDS011;15243;50.726;7.080;2022-12-07T03:50:03;62.97;;;33.50;;
27899;SDS011;15243;50.726;7.080;2022-12-07T03:52:53;66.55;;;35.22;;
27899;SDS011;15243;50.726;7.080;2022-12-07T03:55:41;60.97;;;33.90;;
27899;SDS011;15243;50.726;7.080;2022-12-07T03:58:12;62.85;;;34.72;;
27899;SDS011;15243;50.726;7.080;2022-12-07T04:00:44;72.70;;;35.72;;
27899;SDS011;15243;50.726;7.080;2022-12-07T04:03:11;62.75;;;33.60;;
27899;SDS011;15243;50.726;7.080;2022-12-07T04:05:38;68.95;;;35.35;;
27899;SDS011;15243;50.726;7.080;2022-12-07T04:08:05;64.72;;;35.47;;
27899;SDS011;15243;50.726;7.080;2022-12-07T04:10:32;61.10;;;35.28;;
27899;SDS011;15243;50.726;7.080;2022-12-07T04:12:59;69.85;;;35.42;;
27899;SDS011;15243;50.726;7.080;2022-12-07T04:15:26;63.30;;;35.95;;
27899;SDS011;15243;50.726;7.080;2022-12-07T04:17:53;67.30;;;36.50;;
27899;SDS011;15243;50.726;7.080;2022-12-07T04:20:21;65.30;;;36.55;;
27899;SDS011;15243;50.726;7.080;2022-12-07T04:22:47;69.70;;;35.50;;
27899;SDS011;15243;50.726;7.080;2022-12-07T04:25:14;64.53;;;34.88;;
27899;SDS011;15243;50.726;7.080;2022-12-07T04:27:41;70.68;;;37.38;;
27899;SDS011;15243;50.726;7.080;2022-12-07T04:30:08;75.30;;;39.05;;
27899;SDS011;15243;50.726;7.080;2022-12-07T04:32:35;72.78;;;37.80;;
27899;SDS011;15243;50.726;7.080;2022-12-07T04:35:03;73.43;;;39.28;;
27899;SDS011;15243;50.726;7.080;2022-12-07T04:37:30;71.03;;;35.63;;
27899;SDS011;15243;50.726;7.080;2022-12-07T04:39:57;73.90;;;37.75;;
27899;SDS011;15243;50.726;7.080;2022-12-07T04:42:24;75.97;;;38.53;;
27899;SDS011;15243;50.726;7.080;2022-12-07T04:44:51;72.82;;;37.92;;
27899;SDS011;15243;50.726;7.080;2022-12-07T04:47:18;71.13;;;35.75;;
27899;SDS011;15243;50.726;7.080;2022-12-07T04:49:45;73.18;;;37.92;;
27899;SDS011;15243;50.726;7.080;2022-12-07T04:52:12;73.68;;;37.50;;
27899;SDS011;15243;50.726;7.080;2022-12-07T04:54:38;73.85;;;38.40;;
27899;SDS011;15243;50.726;7.080;2022-12-07T04:57:05;74.25;;;36.45;;
27899;SDS011;15243;50.726;7.080;2022-12-07T04:59:32;73.78;;;37.65;;
27899;SDS011;15243;50.726;7.080;2022-12-07T05:01:59;71.10;;;36.97;;
27899;SDS011;15243;50.726;7.080;2022-12-07T05:04:26;75.82;;;37.55;;
27899;SDS011;15243;50.726;7.080;2022-12-07T05:06:52;76.82;;;36.50;;
27899;SDS011;15243;50.726;7.080;2022-12-07T05:09:19;73.32;;;35.65;;
27899;SDS011;15243;50.726;7.080;2022-12-07T05:11:46;75.00;;;36.67;;
27899;SDS011;15243;50.726;7.080;2022-12-07T05:14:15;73.30;;;36.97;;
27899;SDS011;15243;50.726;7.080;2022-12-07T05:16:46;69.00;;;36.10;;
27899;SDS011;15243;50.726;7.080;2022-12-07T05:19:16;65.20;;;32.83;;
27899;SDS011;15243;50.726;7.080;2022-12-07T05:21:43;65.43;;;32.92;;
27899;SDS011;15243;50.726;7.080;2022-12-07T05:24:11;69.82;;;34.83;;
27899;SDS011;15243;50.726;7.080;2022-12-07T05:26:39;69.70;;;33.08;;
27899;SDS011;15243;50.726;7.080;2022-12-07T05:29:06;74.63;;;36.00;;
27899;SDS011;15243;50.726;7.080;2022-12-07T05:31:33;70.88;;;33.42;;
27899;SDS011;15243;50.726;7.080;2022-12-07T05:34:00;69.15;;;33.38;;
27899;SDS011;15243;50.726;7.080;2022-12-07T05:36:28;66.53;;;32.58;;
27899;SDS011;15243;50.726;7.080;2022-12-07T05:38:57;63.53;;;32.00;;
27899;SDS011;15243;50.726;7.080;2022-12-07T05:41:24;61.78;;;32.33;;
27899;SDS011;15243;50.726;7.080;2022-12-07T05:44:09;73.82;;;33.33;;
27899;SDS011;15243;50.726;7.080;2022-12-07T05:46:36;64.70;;;31.75;;
27899;SDS011;15243;50.726;7.080;2022-12-07T05:49:03;65.55;;;32.42;;
27899;SDS011;15243;50.726;7.080;2022-12-07T05:51:30;63.97;;;33.60;;
27899;SDS011;15243;50.726;7.080;2022-12-07T05:53:56;69.80;;;33.35;;
27899;SDS011;15243;50.726;7.080;2022-12-07T05:56:23;69.63;;;33.00;;
27899;SDS011;15243;50.726;7.080;2022-12-07T05:58:52;68.95;;;32.83;;
27899;SDS011;15243;50.726;7.080;2022-12-07T06:01:38;66.45;;;31.80;;
27899;SDS011;15243;50.726;7.080;2022-12-07T06:04:08;59.85;;;30.30;;
27899;SDS011;15243;50.726;7.080;2022-12-07T06:06:35;63.60;;;30.30;;
27899;SDS011;15243;50.726;7.080;2022-12-07T06:09:02;66.35;;;32.25;;
27899;SDS011;15243;50.726;7.080;2022-12-07T06:11:30;65.00;;;32.67;;
27899;SDS011;15243;50.726;7.080;2022-12-07T06:14:15;64.88;;;31.83;;
27899;SDS011;15243;50.726;7.080;2022-12-07T06:16:42;67.20;;;31.60;;
27899;SDS011;15243;50.726;7.080;2022-12-07T06:19:09;69.75;;;32.10;;
27899;SDS011;15243;50.726;7.080;2022-12-07T06:21:37;66.32;;;31.95;;
27899;SDS011;15243;50.726;7.080;2022-12-07T06:24:04;67.00;;;32.10;;
27899;SDS011;15243;50.726;7.080;2022-12-07T06:26:31;64.00;;;31.95;;
27899;SDS011;15243;50.726;7.080;2022-12-07T06:28:58;62.72;;;32.47;;
27899;SDS011;15243;50.726;7.080;2022-12-07T06:31:25;69.50;;;30.88;;
27899;SDS011;15243;50.726;7.080;2022-12-07T06:33:56;63.50;;;31.83;;
27899;SDS011;15243;50.726;7.080;2022-12-07T06:36:33;67.55;;;33.97;;
27899;SDS011;15243;50.726;7.080;2022-12-07T06:39:00;73.97;;;33.55;;
27899;SDS011;15243;50.726;7.080;2022-12-07T06:41:27;73.03;;;33.55;;
27899;SDS011;15243;50.726;7.080;2022-12-07T06:43:54;74.93;;;34.40;;
27899;SDS011;15243;50.726;7.080;2022-12-07T06:46:21;70.55;;;32.63;;
27899;SDS011;15243;50.726;7.080;2022-12-07T06:48:49;69.65;;;33.45;;
27899;SDS011;15243;50.726;7.080;2022-12-07T06:51:15;66.25;;;32.45;;
27899;SDS011;15243;50.726;7.080;2022-12-07T06:53:42;68.10;;;31.45;;
27899;SDS011;15243;50.726;7.080;2022-12-07T06:56:09;60.55;;;30.05;;
27899;SDS011;15243;50.726;7.080;2022-12-07T06:58:36;61.28;;;31.30;;
27899;SDS011;15243;50.726;7.080;2022-12-07T07:01:07;64.03;;;30.80;;
27899;SDS011;15243;50.726;7.080;2022-12-07T07:03:39;66.45;;;31.27;;
27899;SDS011;15243;50.726;7.080;2022-12-07T07:06:06;59.90;;;28.48;;
27899;SDS011;15243;50.726;7.080;2022-12-07T07:08:34;58.63;;;27.25;;
27899;SDS011;15243;50.726;7.080;2022-12-07T07:11:01;50.50;;;24.67;;
27899;SDS011;15243;50.726;7.080;2022-12-07T07:13:28;51.38;;;24.35;;
27899;SDS011;15243;50.726;7.080;2022-12-07T07:15:55;42.97;;;22.08;;
27899;SDS011;15243;50.726;7.080;2022-12-07T07:18:23;40.30;;;20.63;;
27899;SDS011;15243;50.726;7.080;2022-12-07T07:20:50;47.95;;;21.20;;
27899;SDS011;15243;50.726;7.080;2022-12-07T07:23:18;48.45;;;21.52;;
27899;SDS011;15243;50.726;7.080;2022-12-07T07:25:45;35.65;;;19.60;;
27899;SDS011;15243;50.726;7.080;2022-12-07T07:28:13;50.28;;;22.33;;
27899;SDS011;15243;50.726;7.080;2022-12-07T07:30:40;45.40;;;21.10;;
27899;SDS011;15243;50.726;7.080;2022-12-07T07:33:07;35.60;;;20.67;;
27899;SDS011;15243;50.726;7.080;2022-12-07T07:35:34;40.55;;;21.95;;
27899;SDS011;15243;50.726;7.080;2022-12-07T07:38:01;47.63;;;21.70;;
27899;SDS011;15243;50.726;7.080;2022-12-07T07:40:29;40.50;;;20.63;;
27899;SDS011;15243;50.726;7.080;2022-12-07T07:43:01;45.63;;;22.30;;
27899;SDS011;15243;50.726;7.080;2022-12-07T07:45:29;48.00;;;23.27;;
27899;SDS011;15243;50.726;7.080;2022-12-07T07:47:55;51.70;;;24.98;;
27899;SDS011;15243;50.726;7.080;2022-12-07T07:50:22;53.63;;;24.33;;
27899;SDS011;15243;50.726;7.080;2022-12-07T07:52:49;53.72;;;25.55;;
27899;SDS011;15243;50.726;7.080;2022-12-07T07:55:17;49.70;;;23.98;;
27899;SDS011;15243;50.726;7.080;2022-12-07T07:57:44;53.90;;;26.08;;
27899;SDS011;15243;50.726;7.080;2022-12-07T08:00:16;54.38;;;26.25;;
27899;SDS011;15243;50.726;7.080;2022-12-07T08:02:43;58.13;;;28.52;;
27899;SDS011;15243;50.726;7.080;2022-12-07T08:05:12;55.33;;;27.33;;
27899;SDS011;15243;50.726;7.080;2022-12-07T08:07:39;59.53;;;28.00;;
27899;SDS011;15243;50.726;7.080;2022-12-07T08:10:07;65.10;;;29.45;;
27899;SDS011;15243;50.726;7.080;2022-12-07T08:12:37;74.28;;;30.25;;
27899;SDS011;15243;50.726;7.080;2022-12-07T08:15:26;60.17;;;28.50;;
27899;SDS011;15243;50.726;7.080;2022-12-07T08:17:54;64.32;;;29.70;;
27899;SDS011;15243;50.726;7.080;2022-12-07T08:20:21;60.70;;;29.48;;
27899;SDS011;15243;50.726;7.080;2022-12-07T08:22:48;61.92;;;27.95;;
27899;SDS011;15243;50.726;7.080;2022-12-07T08:25:17;56.75;;;28.00;;
27899;SDS011;15243;50.726;7.080;2022-12-07T08:27:44;59.13;;;28.02;;
27899;SDS011;15243;50.726;7.080;2022-12-07T08:30:11;56.67;;;28.35;;
27899;SDS011;15243;50.726;7.080;2022-12-07T08:32:38;50.47;;;27.77;;
27899;SDS011;15243;50.726;7.080;2022-12-07T08:35:07;55.33;;;28.35;;
27899;SDS011;15243;50.726;7.080;2022-12-07T08:37:35;56.53;;;26.42;;
27899;SDS011;15243;50.726;7.080;2022-12-07T08:40:02;63.67;;;29.17;;
27899;SDS011;15243;50.726;7.080;2022-12-07T08:42:31;57.63;;;27.38;;
27899;SDS011;15243;50.726;7.080;2022-12-07T08:45:05;52.90;;;26.58;;
27899;SDS011;15243;50.726;7.080;2022-12-07T08:47:34;51.67;;;26.55;;
27899;SDS011;15243;50.726;7.080;2022-12-07T08:50:03;52.17;;;26.83;;
27899;SDS011;15243;50.726;7.080;2022-12-07T08:52:34;54.22;;;26.40;;
27899;SDS011;15243;50.726;7.080;2022-12-07T08:55:03;52.42;;;24.65;;
27899;SDS011;15243;50.726;7.080;2022-12-07T08:57:32;48.47;;;25.10;;
27899;SDS011;15243;50.726;7.080;2022-12-07T09:00:02;49.80;;;24.20;;
27899;SDS011;15243;50.726;7.080;2022-12-07T09:02:31;55.90;;;25.08;;
27899;SDS011;15243;50.726;7.080;2022-12-07T09:04:58;49.72;;;23.88;;
27899;SDS011;15243;50.726;7.080;2022-12-07T09:07:25;53.17;;;24.35;;
27899;SDS011;15243;50.726;7.080;2022-12-07T09:09:52;59.60;;;24.30;;
27899;SDS011;15243;50.726;7.080;2022-12-07T09:12:19;53.63;;;24.27;;
27899;SDS011;15243;50.726;7.080;2022-12-07T09:14:46;46.38;;;22.55;;
27899;SDS011;15243;50.726;7.080;2022-12-07T09:17:12;49.92;;;21.33;;
27899;SDS011;15243;50.726;7.080;2022-12-07T09:19:40;50.90;;;21.67;;
27899;SDS011;15243;50.726;7.080;2022-12-07T09:22:08;49.80;;;22.60;;
27899;SDS011;15243;50.726;7.080;2022-12-07T09:24:35;47.33;;;20.33;;
27899;SDS011;15243;50.726;7.080;2022-12-07T09:27:02;42.35;;;19.83;;
27899;SDS011;15243;50.726;7.080;2022-12-07T09:29:28;48.40;;;21.60;;
27899;SDS011;15243;50.726;7.080;2022-12-07T09:31:55;43.20;;;20.23;;
27899;SDS011;15243;50.726;7.080;2022-12-07T09:34:22;46.30;;;22.10;;
27899;SDS011;15243;50.726;7.080;2022-12-07T09:36:49;45.38;;;19.55;;
27899;SDS011;15243;50.726;7.080;2022-12-07T09:39:16;40.40;;;18.40;;
27899;SDS011;15243;50.726;7.080;2022-12-07T09:41:43;39.80;;;19.40;;
27899;SDS011;15243;50.726;7.080;2022-12-07T09:44:13;35.85;;;17.83;;
27899;SDS011;15243;50.726;7.080;2022-12-07T09:46:44;28.52;;;16.38;;
27899;SDS011;15243;50.726;7.080;2022-12-07T09:49:12;32.17;;;15.63;;
27899;SDS011;15243;50.726;7.080;2022-12-07T09:51:44;38.35;;;17.95;;
27899;SDS011;15243;50.726;7.080;2022-12-07T09:54:14;33.10;;;15.45;;
27899;SDS011;15243;50.726;7.080;2022-12-07T09:56:42;26.95;;;14.85;;
27899;SDS011;15243;50.726;7.080;2022-12-07T09:59:12;35.75;;;15.82;;
27899;SDS011;15243;50.726;7.080;2022-12-07T10:01:44;32.88;;;16.08;;
27899;SDS011;15243;50.726;7.080;2022-12-07T10:06:42;32.15;;;14.25;;
27899;SDS011;15243;50.726;7.080;2022-12-07T10:09:10;28.77;;;15.45;;
27899;SDS011;15243;50.726;7.080;2022-12-07T10:14:27;35.90;;;14.57;;
27899;SDS011;15243;50.726;7.080;2022-12-07T10:23:08;24.90;;;13.00;;
27899;SDS011;15243;50.726;7.080;2022-12-07T10:25:44;32.22;;;13.15;;
27899;SDS011;15243;50.726;7.080;2022-12-07T10:28:13;25.60;;;13.77;;
27899;SDS011;15243;50.726;7.080;2022-12-07T10:31:01;26.52;;;13.13;;
27899;SDS011;15243;50.726;7.080;2022-12-07T10:41:47;22.73;;;11.20;;
27899;SDS011;15243;50.726;7.080;2022-12-07T10:44:27;30.95;;;12.55;;
27899;SDS011;15243;50.726;7.080;2022-12-07T10:49:44;26.17;;;12.52;;
27899;SDS011;15243;50.726;7.080;2022-12-07T10:52:16;27.58;;;11.90;;
27899;SDS011;15243;50.726;7.080;2022-12-07T10:54:48;28.05;;;12.05;;
27899;SDS011;15243;50.726;7.080;2022-12-07T11:00:29;23.65;;;11.85;;
27899;SDS011;15243;50.726;7.080;2022-12-07T11:05:49;23.58;;;10.30;;
27899;SDS011;15243;50.726;7.080;2022-12-07T11:08:50;22.02;;;10.27;;
27899;SDS011;15243;50.726;7.080;2022-12-07T11:19:34;19.40;;;8.50;;
27899;SDS011;15243;50.726;7.080;2022-12-07T11:22:15;21.23;;;8.60;;
27899;SDS011;15243;50.726;7.080;2022-12-07T11:24:56;21.15;;;9.02;;
27899;SDS011;15243;50.726;7.080;2022-12-07T11:40:59;18.25;;;7.03;;
27899;SDS011;15243;50.726;7.080;2022-12-07T11:43:49;19.23;;;6.43;;
27899;SDS011;15243;50.726;7.080;2022-12-07T11:46:17;17.52;;;6.68;;
27899;SDS011;15243;50.726;7.080;2022-12-07T11:51:18;18.75;;;5.93;;
27899;SDS011;15243;50.726;7.080;2022-12-07T11:53:55;22.75;;;6.65;;
27899;SDS011;15243;50.726;7.080;2022-12-07T11:56:27;20.42;;;6.32;;
27899;SDS011;15243;50.726;7.080;2022-12-07T11:59:03;14.68;;;5.75;;
27899;SDS011;15243;50.726;7.080;2022-12-07T12:02:07;18.83;;;6.38;;
27899;SDS011;15243;50.726;7.080;2022-12-07T12:07:22;14.85;;;6.38;;
27899;SDS011;15243;50.726;7.080;2022-12-07T12:10:18;18.13;;;6.38;;
27899;SDS011;15243;50.726;7.080;2022-12-07T12:21:31;16.40;;;6.30;;
27899;SDS011;15243;50.726;7.080;2022-12-07T12:24:33;18.15;;;6.20;;
27899;SDS011;15243;50.726;7.080;2022-12-07T12:27:08;20.48;;;7.53;;
27899;SDS011;15243;50.726;7.080;2022-12-07T12:29:42;19.80;;;7.22;;
27899;SDS011;15243;50.726;7.080;2022-12-07T12:38:20;18.02;;;8.15;;
27899;SDS011;15243;50.726;7.080;2022-12-07T12:42:46;27.67;;;8.40;;
27899;SDS011;15243;50.726;7.080;2022-12-07T12:47:58;22.95;;;8.70;;
27899;SDS011;15243;50.726;7.080;2022-12-07T12:50:35;17.98;;;7.63;;
27899;SDS011;15243;50.726;7.080;2022-12-07T12:53:05;16.17;;;7.70;;
27899;SDS011;15243;50.726;7.080;2022-12-07T12:59:18;20.90;;;7.88;;
27899;SDS011;15243;50.726;7.080;2022-12-07T13:01:55;25.25;;;8.45;;
27899;SDS011;15243;50.726;7.080;2022-12-07T13:04:37;23.23;;;7.82;;
27899;SDS011;15243;50.726;7.080;2022-12-07T13:07:13;23.77;;;9.03;;
27899;SDS011;15243;50.726;7.080;2022-12-07T13:13:00;21.98;;;9.38;;
27899;SDS011;15243;50.726;7.080;2022-12-07T13:15:43;24.35;;;9.45;;
27899;SDS011;15243;50.726;7.080;2022-12-07T13:20:59;24.45;;;9.63;;
27899;SDS011;15243;50.726;7.080;2022-12-07T13:34:05;23.40;;;9.63;;
27899;SDS011;15243;50.726;7.080;2022-12-07T13:37:00;24.75;;;10.43;;
27899;SDS011;15243;50.726;7.080;2022-12-07T13:42:58;21.08;;;9.38;;
27899;SDS011;15243;50.726;7.080;2022-12-07T13:45:31;23.17;;;10.10;;
27899;SDS011;15243;50.726;7.080;2022-12-07T13:51:01;18.10;;;8.88;;
27899;SDS011;15243;50.726;7.080;2022-12-07T13:53:29;20.10;;;8.93;;
27899;SDS011;15243;50.726;7.080;2022-12-07T13:56:00;21.58;;;9.20;;
27899;SDS011;15243;50.726;7.080;2022-12-07T13:58:29;21.50;;;8.40;;
27899;SDS011;15243;50.726;7.080;2022-12-07T14:00:58;18.85;;;8.10;;
27899;SDS011;15243;50.726;7.080;2022-12-07T14:03:31;21.25;;;7.88;;
27899;SDS011;15243;50.726;7.080;2022-12-07T14:06:33;12.45;;;5.22;;
27899;SDS011;15243;50.726;7.080;2022-12-07T14:09:06;8.40;;;4.15;;
27899;SDS011;15243;50.726;7.080;2022-12-07T14:11:35;13.82;;;3.85;;
27899;SDS011;15243;50.726;7.080;2022-12-07T14:14:03;9.27;;;3.58;;
27899;SDS011;15243;50.726;7.080;2022-12-07T14:16:33;13.23;;;4.25;;
27899;SDS011;15243;50.726;7.080;2022-12-07T14:19:03;16.33;;;5.32;;
27899;SDS011;15243;50.726;7.080;2022-12-07T14:21:32;14.13;;;5.10;;
27899;SDS011;15243;50.726;7.080;2022-12-07T14:26:37;12.48;;;3.70;;
27899;SDS011;15243;50.726;7.080;2022-12-07T14:32:21;9.50;;;3.95;;
27899;SDS011;15243;50.726;7.080;2022-12-07T14:37:22;9.85;;;4.00;;
27899;SDS011;15243;50.726;7.080;2022-12-07T14:39:50;9.10;;;4.82;;
27899;SDS011;15243;50.726;7.080;2022-12-07T14:42:16;11.60;;;5.30;;
27899;SDS011;15243;50.726;7.080;2022-12-07T14:44:44;8.50;;;4.78;;
27899;SDS011;15243;50.726;7.080;2022-12-07T14:47:11;11.95;;;5.43;;
27899;SDS011;15243;50.726;7.080;2022-12-07T14:49:58;18.05;;;6.05;;
27899;SDS011;15243;50.726;7.080;2022-12-07T14:52:31;13.52;;;6.05;;
27899;SDS011;15243;50.726;7.080;2022-12-07T14:55:20;14.85;;;7.03;;
27899;SDS011;15243;50.726;7.080;2022-12-07T14:57:49;12.30;;;6.40;;
27899;SDS011;15243;50.726;7.080;2022-12-07T15:00:16;14.07;;;6.65;;
27899;SDS011;15243;50.726;7.080;2022-12-07T15:02:44;18.33;;;7.57;;
27899;SDS011;15243;50.726;7.080;2022-12-07T15:05:12;16.88;;;7.65;;
27899;SDS011;15243;50.726;7.080;2022-12-07T15:07:42;16.52;;;7.95;;
27899;SDS011;15243;50.726;7.080;2022-12-07T15:10:23;22.38;;;9.68;;
27899;SDS011;15243;50.726;7.080;2022-12-07T15:12:56;20.50;;;9.32;;
27899;SDS011;15243;50.726;7.080;2022-12-07T15:15:47;18.00;;;8.05;;
27899;SDS011;15243;50.726;7.080;2022-12-07T15:18:15;21.65;;;8.90;;
27899;SDS011;15243;50.726;7.080;2022-12-07T15:20:43;23.15;;;9.20;;
27899;SDS011;15243;50.726;7.080;2022-12-07T15:23:11;26.75;;;10.13;;
27899;SDS011;15243;50.726;7.080;2022-12-07T15:25:41;29.55;;;10.13;;
27899;SDS011;15243;50.726;7.080;2022-12-07T15:28:13;22.98;;;9.80;;
27899;SDS011;15243;50.726;7.080;2022-12-07T15:30:41;21.15;;;9.52;;
27899;SDS011;15243;50.726;7.080;2022-12-07T15:33:09;24.48;;;10.82;;
27899;SDS011;15243;50.726;7.080;2022-12-07T15:35:41;25.42;;;11.80;;
27899;SDS011;15243;50.726;7.080;2022-12-07T15:38:10;33.25;;;12.95;;
27899;SDS011;15243;50.726;7.080;2022-12-07T15:41:18;32.35;;;12.70;;
27899;SDS011;15243;50.726;7.080;2022-12-07T15:43:45;19.02;;;9.93;;
27899;SDS011;15243;50.726;7.080;2022-12-07T15:46:31;28.60;;;10.95;;
27899;SDS011;15243;50.726;7.080;2022-12-07T15:49:04;23.67;;;11.38;;
27899;SDS011;15243;50.726;7.080;2022-12-07T15:51:32;28.40;;;11.82;;
27899;SDS011;15243;50.726;7.080;2022-12-07T15:53:59;23.50;;;12.20;;
27899;SDS011;15243;50.726;7.080;2022-12-07T15:56:28;24.40;;;11.43;;
27899;SDS011;15243;50.726;7.080;2022-12-07T15:58:55;22.23;;;11.18;;
27899;SDS011;15243;50.726;7.080;2022-12-07T16:01:23;27.13;;;11.05;;
27899;SDS011;15243;50.726;7.080;2022-12-07T16:03:50;23.77;;;11.23;;
27899;SDS011;15243;50.726;7.080;2022-12-07T16:06:17;29.40;;;10.63;;
27899;SDS011;15243;50.726;7.080;2022-12-07T16:08:45;22.50;;;11.38;;
27899;SDS011;15243;50.726;7.080;2022-12-07T16:11:12;25.48;;;10.80;;
27899;SDS011;15243;50.726;7.080;2022-12-07T16:13:40;26.52;;;12.35;;
27899;SDS011;15243;50.726;7.080;2022-12-07T16:16:07;30.45;;;11.57;;
27899;SDS011;15243;50.726;7.080;2022-12-07T16:18:39;21.63;;;10.90;;
27899;SDS011;15243;50.726;7.080;2022-12-07T16:21:06;29.13;;;12.00;;
27899;SDS011;15243;50.726;7.080;2022-12-07T16:23:33;21.50;;;12.05;;
27899;SDS011;15243;50.726;7.080;2022-12-07T16:26:19;25.67;;;12.73;;
27899;SDS011;15243;50.726;7.080;2022-12-07T16:28:50;25.75;;;12.68;;
27899;SDS011;15243;50.726;7.080;2022-12-07T16:31:20;25.93;;;13.00;;
27899;SDS011;15243;50.726;7.080;2022-12-07T16:33:48;27.20;;;13.15;;
27899;SDS011;15243;50.726;7.080;2022-12-07T16:36:16;21.88;;;12.50;;
27899;SDS011;15243;50.726;7.080;2022-12-07T16:39:04;31.15;;;14.45;;
27899;SDS011;15243;50.726;7.080;2022-12-07T16:41:31;31.75;;;14.50;;
27899;SDS011;15243;50.726;7.080;2022-12-07T16:44:03;31.98;;;14.15;;
27899;SDS011;15243;50.726;7.080;2022-12-07T16:46:34;29.98;;;12.93;;
27899;SDS011;15243;50.726;7.080;2022-12-07T16:49:02;29.65;;;13.82;;
27899;SDS011;15243;50.726;7.080;2022-12-07T16:51:30;23.88;;;12.52;;
27899;SDS011;15243;50.726;7.080;2022-12-07T16:53:57;31.30;;;14.45;;
27899;SDS011;15243;50.726;7.080;2022-12-07T16:56:24;27.98;;;12.90;;
27899;SDS011;15243;50.726;7.080;2022-12-07T16:58:52;22.50;;;13.20;;
27899;SDS011;15243;50.726;7.080;2022-12-07T17:01:21;22.40;;;13.43;;